Time;durP1;ratioP1;P1;durP2;ratioP2;P2;SDS_P1;SDS_P2;PMS_P1;PMS_P2;Temp;Humidity;BMP_temperature;BMP_pressure;BME280_temperature;BME280_humidity;BME280_pressure;Samples;Min_cycle;Max_cycle;Signal;HPM_P1;HPM_P2
2021/09/20 00:01:47;;;;;;;5.12;3.70;;;;;;;3.31;100.00;102502.50;2572665;55;20117;-69
2021/09/20 00:04:14;;;;;;;12.77;8.10;;;;;;;3.29;100.00;102499.00;2572755;55;20128;-69
2021/09/20 00:06:42;;;;;;;12.77;9.70;;;;;;;3.27;100.00;102506.06;2572809;55;20144;-70
2021/09/20 00:09:09;;;;;;;9.80;5.28;;;;;;;3.28;100.00;102502.53;2572940;55;20124;-69
2021/09/20 00:11:36;;;;;;;21.10;13.30;;;;;;;3.16;100.00;102499.19;2572798;55;20132;-70
2021/09/20 00:14:03;;;;;;;7.68;4.43;;;;;;;3.18;100.00;102502.69;2572860;55;20144;-69
2021/09/20 00:16:32;;;;;;;35.25;23.35;;;;;;;3.17;100.00;102498.31;2572919;55;20113;-69
2021/09/20 00:18:59;;;;;;;21.27;14.48;;;;;;;3.22;100.00;102500.87;2572641;55;20124;-70
2021/09/20 00:21:26;;;;;;;22.13;15.85;;;;;;;3.13;100.00;102499.25;2572794;55;20105;-69
2021/09/20 00:23:54;;;;;;;107.45;62.65;;;;;;;3.12;100.00;102499.28;2572668;55;20140;-69
2021/09/20 00:26:22;;;;;;;33.50;21.85;;;;;;;3.09;100.00;102499.34;2572621;55;20156;-69
2021/09/20 00:28:49;;;;;;;29.77;19.90;;;;;;;3.06;100.00;102498.50;2572498;55;20131;-69
2021/09/20 00:31:16;;;;;;;54.30;34.30;;;;;;;3.00;100.00;102503.84;2572777;55;20662;-70
2021/09/20 00:33:43;;;;;;;65.60;44.13;;;;;;;2.96;100.00;102496.88;2572890;55;20130;-70
2021/09/20 00:36:11;;;;;;;38.35;25.17;;;;;;;2.90;100.00;102487.25;2572615;55;20118;-69
2021/09/20 00:38:38;;;;;;;24.37;17.10;;;;;;;2.89;100.00;102495.22;2567784;55;20109;-69
2021/09/20 00:41:06;;;;;;;43.63;31.85;;;;;;;2.87;100.00;102492.59;2572737;55;20128;-69
2021/09/20 00:43:33;;;;;;;15.65;10.80;;;;;;;2.89;100.00;102492.59;2572615;55;20496;-70
2021/09/20 00:46:04;;;;;;;29.85;20.62;;;;;;;2.86;100.00;102490.84;2572675;55;20127;-70
2021/09/20 00:48:31;;;;;;;47.17;30.95;;;;;;;2.79;100.00;102489.19;2572650;55;20113;-69
2021/09/20 00:50:58;;;;;;;15.02;10.70;;;;;;;2.83;100.00;102493.53;2572851;55;20106;-70
2021/09/20 00:53:25;;;;;;;35.95;26.12;;;;;;;2.81;100.00;102490.06;2572475;55;20113;-69
2021/09/20 00:55:53;;;;;;;24.10;14.98;;;;;;;2.82;100.00;102489.16;2572427;55;20110;-69
2021/09/20 00:58:21;;;;;;;11.38;6.72;;;;;;;2.82;100.00;102483.91;2572783;55;20117;-69
2021/09/20 01:00:48;;;;;;;25.98;18.05;;;;;;;2.78;100.00;102487.44;2572687;55;20118;-69
2021/09/20 01:03:16;;;;;;;22.62;13.73;;;;;;;2.82;100.00;102477.72;2572806;55;20134;-69
2021/09/20 01:05:43;;;;;;;21.27;13.90;;;;;;;2.74;100.00;102481.34;2572554;55;20113;-69
2021/09/20 01:08:10;;;;;;;28.40;18.95;;;;;;;2.78;100.00;102474.28;2572671;55;20124;-70
2021/09/20 01:10:37;;;;;;;27.95;17.40;;;;;;;2.75;100.00;102477.81;2572642;55;20125;-70
2021/09/20 01:13:05;;;;;;;22.77;12.68;;;;;;;2.71;100.00;102478.75;2572673;55;20487;-70
2021/09/20 01:15:33;;;;;;;24.35;15.48;;;;;;;2.72;100.00;102479.66;2573155;55;20121;-70
2021/09/20 01:18:00;;;;;;;21.83;15.60;;;;;;;2.71;100.00;102467.37;2573558;55;20126;-70
2021/09/20 01:20:28;;;;;;;6.85;4.60;;;;;;;2.77;100.00;102476.06;2573662;55;20140;-70
2021/09/20 01:22:59;;;;;;;22.52;16.85;;;;;;;2.82;100.00;102467.19;2573667;55;20122;-69
2021/09/20 01:25:36;;;;;;;9.05;4.97;;;;;;;2.81;100.00;102476.88;2573414;55;20122;-70
2021/09/20 01:28:03;;;;;;;12.80;8.15;;;;;;;2.81;100.00;102482.16;2573466;55;20122;-70
2021/09/20 01:30:31;;;;;;;16.15;10.95;;;;;;;2.77;100.00;102473.41;2573561;55;20118;-70
2021/09/20 01:32:58;;;;;;;18.08;11.20;;;;;;;2.72;100.00;102466.47;2573391;55;20121;-69
2021/09/20 01:35:26;;;;;;;22.10;14.73;;;;;;;2.73;100.00;102469.06;2573470;55;20129;-69
2021/09/20 01:37:53;;;;;;;10.35;6.00;;;;;;;2.77;100.00;102475.16;2573427;55;20637;-70
2021/09/20 01:40:22;;;;;;;12.70;8.23;;;;;;;2.83;100.00;102480.34;2573364;55;20114;-70
2021/09/20 01:42:49;;;;;;;24.00;14.60;;;;;;;2.76;100.00;102473.41;2573354;55;20661;-69
2021/09/20 01:45:17;;;;;;;10.98;6.97;;;;;;;2.74;100.00;102480.50;2573175;55;20643;-70
2021/09/20 01:47:45;;;;;;;36.03;20.48;;;;;;;2.75;100.00;102482.22;2573478;55;20649;-70
2021/09/20 01:50:13;;;;;;;12.65;7.57;;;;;;;2.75;100.00;102476.97;2573579;55;20132;-69
2021/09/20 01:52:41;;;;;;;25.20;16.33;;;;;;;2.74;100.00;102483.13;2573529;55;20113;-70
2021/09/20 01:55:11;;;;;;;6.68;3.90;;;;;;;2.76;100.00;102486.59;2573591;55;20116;-70
2021/09/20 01:57:39;;;;;;;11.73;8.85;;;;;;;2.71;100.00;102483.19;2573368;55;20143;-69
2021/09/20 02:00:10;;;;;;;31.67;16.35;;;;;;;2.63;100.00;102470.97;2573432;55;20117;-69
2021/09/20 02:02:37;;;;;;;33.15;22.87;;;;;;;2.63;100.00;102478.88;2573416;55;20109;-70
2021/09/20 02:05:08;;;;;;;30.08;17.55;;;;;;;2.64;100.00;102483.25;2573375;55;20127;-69
2021/09/20 02:07:35;;;;;;;26.12;12.30;;;;;;;2.66;100.00;102471.81;2573214;55;20604;-69
2021/09/20 02:10:05;;;;;;;28.40;17.12;;;;;;;2.63;100.00;102470.06;2573110;55;20117;-70
2021/09/20 02:12:32;;;;;;;22.10;12.43;;;;;;;2.62;100.00;102471.88;2573250;55;20129;-69
2021/09/20 02:15:03;;;;;;;26.37;14.05;;;;;;;2.64;100.00;102477.97;2573292;55;20122;-70
2021/09/20 02:17:30;;;;;;;30.33;13.82;;;;;;;2.68;100.00;102467.37;2573122;55;20116;-69
2021/09/20 02:19:57;;;;;;;6.90;3.97;;;;;;;2.80;100.00;102471.63;2573327;55;20143;-69
2021/09/20 02:22:24;;;;;;;23.52;10.40;;;;;;;2.80;100.00;102468.97;2573324;55;20102;-69
2021/09/20 02:24:51;;;;;;;16.23;10.57;;;;;;;2.77;100.00;102475.16;2573354;55;20106;-69
2021/09/20 02:27:19;;;;;;;12.02;7.53;;;;;;;2.78;100.00;102466.34;2573324;55;20105;-69
2021/09/20 02:29:45;;;;;;;18.20;10.52;;;;;;;2.75;100.00;102469.03;2568103;55;20114;-69
2021/09/20 02:32:13;;;;;;;8.90;4.68;;;;;;;2.79;100.00;102462.81;2573305;55;20122;-69
2021/09/20 02:34:41;;;;;;;20.83;10.60;;;;;;;2.83;100.00;102467.19;2573181;55;20132;-69
2021/09/20 02:37:08;;;;;;;4.20;2.70;;;;;;;2.88;100.00;102467.97;2573003;55;20116;-69
2021/09/20 02:39:35;;;;;;;9.98;5.10;;;;;;;2.94;100.00;102468.78;2573003;55;20125;-70
2021/09/20 02:42:02;;;;;;;6.35;2.40;;;;;;;3.01;100.00;102467.81;2573172;55;20106;-69
2021/09/20 02:44:29;;;;;;;4.95;3.65;;;;;;;2.98;100.00;102468.72;2573302;55;20627;-70
2021/09/20 02:46:56;;;;;;;9.02;5.72;;;;;;;2.99;100.00;102474.84;2573188;55;20112;-69
2021/09/20 02:49:24;;;;;;;12.70;6.35;;;;;;;3.00;100.00;102480.09;2573076;55;20130;-70
2021/09/20 02:51:54;;;;;;;18.35;8.10;;;;;;;2.93;100.00;102462.62;2573090;55;20129;-70
2021/09/20 02:54:20;;;;;;;15.00;8.82;;;;;;;2.92;100.00;102474.06;2567898;55;20106;-70
2021/09/20 02:56:48;;;;;;;7.37;3.53;;;;;;;2.93;100.00;102465.25;2573109;55;20121;-70
2021/09/20 02:59:15;;;;;;;8.75;5.15;;;;;;;2.90;100.00;102460.91;2573108;55;20549;-69
2021/09/20 03:01:42;;;;;;;5.05;3.50;;;;;;;2.89;100.00;102464.44;2573119;55;20147;-69
2021/09/20 03:04:09;;;;;;;6.95;4.03;;;;;;;2.87;100.00;102471.50;2572883;55;20192;-69
2021/09/20 03:06:37;;;;;;;8.93;5.05;;;;;;;2.88;100.00;102462.69;2572907;55;20570;-70
2021/09/20 03:09:04;;;;;;;6.30;3.92;;;;;;;2.92;100.00;102458.25;2573050;55;20172;-70
2021/09/20 03:11:32;;;;;;;7.57;3.33;;;;;;;2.92;100.00;102468.78;2573140;55;20125;-70
2021/09/20 03:13:58;;;;;;;5.22;4.00;;;;;;;2.91;100.00;102459.16;2573270;55;20795;-69
2021/09/20 03:16:25;;;;;;;3.47;3.03;;;;;;;2.91;100.00;102457.41;2573177;55;20156;-70
2021/09/20 03:18:53;;;;;;;3.70;2.70;;;;;;;2.94;100.00;102466.16;2573096;55;20455;-70
2021/09/20 03:21:23;;;;;;;10.75;5.80;;;;;;;2.93;100.00;102465.25;2573008;55;20148;-70
2021/09/20 03:23:51;;;;;;;3.30;2.42;;;;;;;2.95;100.00;102459.97;2573069;55;20106;-69
2021/09/20 03:26:19;;;;;;;13.00;8.00;;;;;;;2.90;100.00;102465.31;2572952;55;20123;-70
2021/09/20 03:28:46;;;;;;;3.25;2.47;;;;;;;3.03;100.00;102456.31;2572906;55;20147;-69
2021/09/20 03:31:13;;;;;;;8.75;3.95;;;;;;;2.94;100.00;102466.16;2572972;55;20106;-69
2021/09/20 03:33:40;;;;;;;9.20;3.85;;;;;;;2.97;100.00;102471.38;2572993;55;20609;-70
2021/09/20 03:36:07;;;;;;;7.87;4.75;;;;;;;2.94;100.00;102466.16;2573056;55;20127;-70
2021/09/20 03:38:34;;;;;;;13.38;4.50;;;;;;;3.02;100.00;102469.53;2572704;55;20407;-69
2021/09/20 03:41:02;;;;;;;6.82;4.80;;;;;;;2.97;100.00;102461.69;2572937;55;20114;-70
2021/09/20 03:43:29;;;;;;;17.15;5.65;;;;;;;2.96;100.00;102470.50;2572926;55;20114;-69
2021/09/20 03:45:56;;;;;;;17.20;6.95;;;;;;;2.91;100.00;102467.94;2572920;55;20495;-70
2021/09/20 03:48:23;;;;;;;14.30;7.45;;;;;;;2.92;100.00;102471.44;2572904;55;20126;-69
2021/09/20 03:50:50;;;;;;;9.82;4.43;;;;;;;2.96;100.00;102470.50;2572906;55;20129;-69
2021/09/20 03:53:18;;;;;;;18.42;8.02;;;;;;;2.97;100.00;102472.25;2567865;55;20128;-69
2021/09/20 03:55:46;;;;;;;11.70;4.95;;;;;;;2.92;100.00;102472.31;2572869;55;20512;-69
2021/09/20 03:58:14;;;;;;;17.23;7.80;;;;;;;2.97;100.00;102471.38;2572784;55;20113;-69
2021/09/20 04:00:41;;;;;;;12.27;6.07;;;;;;;2.96;100.00;102472.25;2572663;55;20114;-69
2021/09/20 04:03:09;;;;;;;7.22;3.08;;;;;;;3.01;100.00;102473.09;2572945;55;20106;-70
2021/09/20 04:05:36;;;;;;;8.27;4.03;;;;;;;2.98;100.00;102452.00;2572972;55;20114;-69
2021/09/20 04:08:04;;;;;;;7.90;3.83;;;;;;;3.14;100.00;102485.16;2572823;55;20143;-69
2021/09/20 04:10:31;;;;;;;6.95;2.35;;;;;;;3.15;100.00;102479.00;2572810;55;20124;-69
2021/09/20 04:12:58;;;;;;;13.23;7.00;;;;;;;3.05;100.00;102470.34;2572986;55;20599;-70
2021/09/20 04:15:26;;;;;;;51.83;18.85;;;;;;;3.08;100.00;102482.62;2572789;55;20543;-70
2021/09/20 04:17:53;;;;;;;34.30;18.25;;;;;;;3.08;100.00;102487.91;2572685;55;20635;-70
2021/09/20 04:20:20;;;;;;;9.45;4.65;;;;;;;3.18;100.00;102481.56;2572708;55;20106;-69
2021/09/20 04:22:48;;;;;;;16.12;6.60;;;;;;;3.18;100.00;102481.56;2572593;55;20123;-70
2021/09/20 04:25:15;;;;;;;6.85;4.05;;;;;;;3.18;100.00;102481.56;2572771;55;20101;-70
2021/09/20 04:27:42;;;;;;;4.87;3.67;;;;;;;3.23;100.00;102483.28;2572711;55;20110;-70
2021/09/20 04:30:10;;;;;;;4.25;2.80;;;;;;;3.18;100.00;102478.94;2572794;55;20113;-70
2021/09/20 04:32:39;;;;;;;8.85;4.85;;;;;;;3.20;100.00;102473.66;2572735;55;20127;-69
2021/09/20 04:35:06;;;;;;;7.43;2.00;;;;;;;3.23;100.00;102476.22;2572756;55;20139;-69
2021/09/20 04:37:34;;;;;;;3.45;2.58;;;;;;;3.23;100.00;102483.28;2572640;55;20110;-69
2021/09/20 04:40:01;;;;;;;3.20;1.70;;;;;;;3.25;100.00;102487.63;2572678;55;20135;-69
2021/09/20 04:42:29;;;;;;;2.85;1.62;;;;;;;3.27;100.00;102487.63;2572769;55;20114;-69
2021/09/20 04:44:56;;;;;;;3.30;2.00;;;;;;;3.25;100.00;102486.78;2572836;55;20109;-69
2021/09/20 04:47:24;;;;;;;4.18;2.78;;;;;;;3.21;100.00;102480.66;2572635;55;20613;-70
2021/09/20 04:49:52;;;;;;;5.32;3.40;;;;;;;3.27;100.00;102491.13;2572510;55;20128;-69
2021/09/20 04:52:18;;;;;;;4.32;2.58;;;;;;;3.29;100.00;102499.88;2572651;55;20112;-69
2021/09/20 04:54:46;;;;;;;3.58;2.05;;;;;;;3.29;100.00;102496.38;2572678;55;20121;-70
2021/09/20 04:57:13;;;;;;;3.72;2.00;;;;;;;3.31;100.00;102492.81;2572823;55;20109;-70
2021/09/20 04:59:40;;;;;;;6.87;4.12;;;;;;;3.29;100.00;102491.09;2572746;55;20173;-70
2021/09/20 05:02:07;;;;;;;5.55;2.83;;;;;;;3.34;100.00;102497.19;2572642;55;20110;-70
2021/09/20 05:04:34;;;;;;;2.78;1.90;;;;;;;3.35;100.00;102496.28;2572660;55;20136;-69
2021/09/20 05:07:02;;;;;;;3.17;1.87;;;;;;;3.38;100.00;102504.13;2572627;55;20113;-69
2021/09/20 05:09:30;;;;;;;6.05;2.58;;;;;;;3.43;100.00;102498.78;2567504;55;20140;-69
2021/09/20 05:11:57;;;;;;;9.27;4.20;;;;;;;3.43;100.00;102507.59;2572686;55;20508;-69
2021/09/20 05:14:24;;;;;;;6.93;3.87;;;;;;;3.47;100.00;102501.34;2572620;55;20607;-70
2021/09/20 05:16:52;;;;;;;7.50;4.93;;;;;;;3.52;100.00;102503.06;2572405;55;20121;-69
2021/09/20 05:19:19;;;;;;;4.75;3.22;;;;;;;3.53;100.00;102507.44;2572619;55;20121;-69
2021/09/20 05:21:46;;;;;;;6.65;3.30;;;;;;;3.60;100.00;102493.22;2572598;55;20507;-69
2021/09/20 05:24:14;;;;;;;4.07;2.80;;;;;;;3.66;100.00;102503.69;2572569;55;20117;-69
2021/09/20 05:26:41;;;;;;;3.20;2.65;;;;;;;3.69;100.00;102503.63;2572548;55;20124;-69
2021/09/20 05:29:08;;;;;;;7.47;4.30;;;;;;;3.72;100.00;102502.69;2572697;55;20496;-69
2021/09/20 05:31:36;;;;;;;1.37;1.15;;;;;;;3.82;100.00;102500.78;2572007;55;20109;-69
2021/09/20 05:34:03;;;;;;;5.07;3.45;;;;;;;3.83;100.00;102499.88;2572079;55;20117;-69
2021/09/20 05:36:30;;;;;;;3.05;2.50;;;;;;;3.90;100.00;102498.84;2572090;55;20106;-69
2021/09/20 05:38:58;;;;;;;4.70;3.33;;;;;;;3.95;100.00;102493.47;2572170;55;20128;-70
2021/09/20 05:41:26;;;;;;;5.75;2.37;;;;;;;3.93;100.00;102493.53;2571411;55;20098;-70
2021/09/20 05:43:53;;;;;;;2.20;1.17;;;;;;;4.01;100.00;102499.53;2572005;55;20123;-67
2021/09/20 05:46:21;;;;;;;2.03;1.60;;;;;;;4.03;100.00;102496.84;2572041;55;20157;-69
2021/09/20 05:48:48;;;;;;;3.00;1.58;;;;;;;4.00;100.00;102489.84;2572167;55;20620;-70
2021/09/20 05:51:16;;;;;;;2.65;1.50;;;;;;;4.16;100.00;102502.78;2571985;55;20133;-69
2021/09/20 05:53:43;;;;;;;8.00;3.33;;;;;;;4.08;100.00;102504.69;2571382;55;20136;-70
2021/09/20 05:56:12;;;;;;;12.02;5.57;;;;;;;4.10;100.00;102503.75;2572245;55;20110;-70
2021/09/20 05:58:40;;;;;;;2.67;2.00;;;;;;;4.18;100.00;102507.13;2572158;55;20128;-69
2021/09/20 06:01:07;;;;;;;4.40;2.67;;;;;;;4.17;100.00;102509.78;2571657;55;20118;-70
2021/09/20 06:03:35;;;;;;;2.40;1.30;;;;;;;4.18;100.00;102507.13;2572044;55;20145;-69
2021/09/20 06:06:03;;;;;;;3.53;2.22;;;;;;;4.24;100.00;102506.12;2572879;55;20110;-68
2021/09/20 06:08:31;;;;;;;2.25;1.50;;;;;;;4.30;100.00;102506.00;2572202;55;20136;-68
2021/09/20 06:10:58;;;;;;;2.95;1.60;;;;;;;4.34;100.00;102505.97;2572612;55;20624;-68
2021/09/20 06:13:25;;;;;;;3.37;1.70;;;;;;;4.41;100.00;102511.06;2573052;55;20120;-69
2021/09/20 06:15:53;;;;;;;2.97;1.45;;;;;;;4.51;100.00;102503.84;2572277;55;20628;-69
2021/09/20 06:18:20;;;;;;;2.45;1.50;;;;;;;4.60;100.00;102498.34;2573337;55;20539;-70
2021/09/20 06:20:47;;;;;;;2.15;1.27;;;;;;;4.67;100.00;102508.78;2573368;55;20121;-70
2021/09/20 06:23:14;;;;;;;1.40;1.02;;;;;;;4.75;100.00;102509.50;2573175;55;20113;-69
2021/09/20 06:25:42;;;;;;;3.75;1.87;;;;;;;4.86;100.00;102515.41;2573182;55;20647;-70
2021/09/20 06:28:09;;;;;;;2.45;1.27;;;;;;;4.86;100.00;102512.78;2573272;55;20113;-70
2021/09/20 06:30:37;;;;;;;3.35;1.55;;;;;;;4.88;100.00;102520.69;2572904;55;20140;-70
2021/09/20 06:33:05;;;;;;;4.25;2.28;;;;;;;4.82;100.00;102513.75;2571684;55;20657;-71
2021/09/20 06:35:32;;;;;;;1.60;1.42;;;;;;;4.90;100.00;102520.63;2572083;55;20128;-69
2021/09/20 06:37:59;;;;;;;2.03;1.40;;;;;;;4.80;100.00;102507.59;2573209;55;20102;-69
2021/09/20 06:40:27;;;;;;;2.85;1.52;;;;;;;4.76;100.00;102521.81;2573367;55;20175;-70
2021/09/20 06:42:54;;;;;;;3.70;1.30;;;;;;;4.74;100.00;102526.28;2573223;55;20121;-69
2021/09/20 06:45:21;;;;;;;2.50;1.45;;;;;;;4.74;100.00;102515.69;2573267;55;20118;-69
2021/09/20 06:47:49;;;;;;;4.12;1.58;;;;;;;4.78;100.00;102509.41;2571672;55;20132;-70
2021/09/20 06:50:17;;;;;;;1.83;1.10;;;;;;;4.79;100.00;102524.38;2571640;55;20121;-69
2021/09/20 06:52:44;;;;;;;2.58;1.10;;;;;;;4.72;100.00;102517.50;2571335;55;20114;-69
2021/09/20 06:55:14;;;;;;;2.60;1.92;;;;;;;4.74;100.00;102524.47;2571586;55;20106;-70
2021/09/20 06:57:41;;;;;;;2.80;1.33;;;;;;;4.82;100.00;102523.44;2571460;55;20132;-69
2021/09/20 07:00:09;;;;;;;1.48;1.20;;;;;;;4.91;100.00;102532.94;2571539;55;20113;-70
2021/09/20 07:02:37;;;;;;;3.00;1.30;;;;;;;4.99;100.00;102525.72;2572191;55;20121;-69
2021/09/20 07:05:04;;;;;;;1.70;1.15;;;;;;;4.97;100.00;102516.94;2573152;55;20106;-70
2021/09/20 07:07:32;;;;;;;5.93;1.12;;;;;;;5.02;100.00;102523.03;2573165;55;20571;-69
2021/09/20 07:09:59;;;;;;;1.98;1.37;;;;;;;5.07;100.00;102529.06;2573174;55;20543;-69
2021/09/20 07:12:26;;;;;;;3.40;1.30;;;;;;;5.13;100.00;102518.34;2573333;55;20410;-70
2021/09/20 07:14:53;;;;;;;3.20;1.35;;;;;;;5.20;100.00;102523.47;2573087;55;20173;-69
2021/09/20 07:17:21;;;;;;;2.45;1.35;;;;;;;5.37;100.00;102513.38;2573330;55;20139;-69
2021/09/20 07:19:48;;;;;;;1.87;0.80;;;;;;;5.58;100.00;102513.72;2573161;55;20135;-70
2021/09/20 07:22:15;;;;;;;2.62;1.10;;;;;;;5.70;100.00;102508.13;2573140;55;20118;-70
2021/09/20 07:24:43;;;;;;;1.80;1.23;;;;;;;5.82;100.00;102514.03;2573053;55;20554;-69
2021/09/20 07:27:10;;;;;;;2.30;1.00;;;;;;;5.84;100.00;102517.50;2573089;55;20121;-70
2021/09/20 07:29:37;;;;;;;2.50;0.88;;;;;;;5.78;100.00;102522.94;2572890;55;20179;-69
2021/09/20 07:32:05;;;;;;;0.98;0.77;;;;;;;5.70;99.55;102529.31;2572974;55;20511;-69
2021/09/20 07:34:32;;;;;;;1.45;1.00;;;;;;;5.61;100.00;102516.31;2573090;55;20147;-69
2021/09/20 07:37:00;;;;;;;5.28;1.35;;;;;;;5.66;100.00;102537.38;2573111;55;20500;-69
2021/09/20 07:39:27;;;;;;;2.05;1.48;;;;;;;5.66;100.00;102514.41;2568124;55;20125;-69
2021/09/20 07:41:55;;;;;;;1.75;1.05;;;;;;;5.65;100.00;102520.63;2573009;55;20109;-69
2021/09/20 07:44:22;;;;;;;1.55;1.10;;;;;;;5.70;100.00;102512.56;2572961;55;20132;-70
2021/09/20 07:46:50;;;;;;;1.70;1.10;;;;;;;5.73;100.00;102519.56;2573083;55;20136;-69
2021/09/20 07:49:17;;;;;;;4.65;1.90;;;;;;;5.87;100.00;102517.41;2573007;55;20126;-70
2021/09/20 07:51:44;;;;;;;4.28;2.28;;;;;;;5.91;100.00;102508.50;2572972;55;20233;-70
2021/09/20 07:54:12;;;;;;;5.93;2.92;;;;;;;6.09;100.00;102504.50;2572970;55;20136;-69
2021/09/20 07:56:39;;;;;;;2.30;1.52;;;;;;;6.30;100.00;102495.97;2572760;55;20121;-69
2021/09/20 07:59:06;;;;;;;4.80;1.90;;;;;;;6.40;99.31;102490.38;2567734;55;20113;-69
2021/09/20 08:01:34;;;;;;;1.70;1.20;;;;;;;6.47;98.04;102498.16;2573046;55;20496;-69
2021/09/20 08:04:04;;;;;;;1.67;1.20;;;;;;;6.31;96.69;102493.28;2572994;55;20128;-69
2021/09/20 08:06:32;;;;;;;2.75;1.30;;;;;;;6.29;97.03;102487.16;2572939;55;20132;-69
2021/09/20 08:08:59;;;;;;;2.15;1.30;;;;;;;6.47;97.80;102506.97;2572927;55;20109;-68
2021/09/20 08:11:28;;;;;;;3.00;1.23;;;;;;;6.56;94.70;102495.19;2573011;55;20488;-69
2021/09/20 08:13:55;;;;;;;2.95;1.58;;;;;;;6.78;96.08;102506.03;2572843;55;20237;-68
2021/09/20 08:16:23;;;;;;;1.45;0.90;;;;;;;6.88;92.76;102492.50;2572926;55;20643;-69
2021/09/20 08:18:50;;;;;;;2.70;1.35;;;;;;;6.91;92.13;102489.72;2572913;55;20493;-68
2021/09/20 08:21:18;;;;;;;2.80;1.25;;;;;;;6.99;93.21;102490.38;2572794;55;20490;-69
2021/09/20 08:23:45;;;;;;;3.45;1.10;;;;;;;6.96;91.55;102490.47;2572528;55;20106;-69
2021/09/20 08:26:12;;;;;;;1.92;1.42;;;;;;;6.74;91.62;102496.44;2572793;55;20157;-69
2021/09/20 08:28:39;;;;;;;2.78;1.50;;;;;;;6.77;92.88;102491.03;2572937;55;20114;-69
2021/09/20 08:31:06;;;;;;;2.47;1.20;;;;;;;6.84;89.91;102496.16;2572957;55;20136;-69
2021/09/20 08:33:34;;;;;;;3.78;2.62;;;;;;;6.87;90.63;102496.94;2572809;55;20110;-68
2021/09/20 08:36:01;;;;;;;3.62;2.62;;;;;;;6.79;90.50;102497.16;2572858;55;20538;-70
2021/09/20 08:38:29;;;;;;;8.73;4.20;;;;;;;6.86;90.57;102496.97;2572818;55;20114;-69
2021/09/20 08:40:58;;;;;;;13.57;7.70;;;;;;;6.86;90.72;102494.31;2572935;55;20647;-69
2021/09/20 08:43:26;;;;;;;8.60;5.20;;;;;;;6.83;90.87;102492.62;2572837;55;20512;-69
2021/09/20 08:45:55;;;;;;;3.67;1.80;;;;;;;6.79;89.82;102497.16;2572809;55;20136;-69
2021/09/20 08:48:24;;;;;;;7.82;3.60;;;;;;;6.82;92.58;102499.75;2572452;55;20508;-69
2021/09/20 08:50:51;;;;;;;12.93;5.50;;;;;;;6.86;89.45;102489.03;2572768;55;20627;-69
2021/09/20 08:53:19;;;;;;;1.10;0.90;;;;;;;6.82;87.88;102481.16;2572604;55;20106;-68
2021/09/20 08:55:47;;;;;;;6.45;3.58;;;;;;;6.75;89.37;102484.91;2572884;55;20136;-69
2021/09/20 08:58:13;;;;;;;15.90;7.03;;;;;;;6.61;88.30;102489.75;2572694;55;20470;-69
2021/09/20 09:00:41;;;;;;;6.62;3.92;;;;;;;6.45;88.80;102489.34;2572834;55;20117;-70
2021/09/20 09:03:08;;;;;;;6.40;2.22;;;;;;;6.46;89.16;102488.44;2572741;55;20114;-69
2021/09/20 09:05:36;;;;;;;5.03;1.27;;;;;;;6.58;88.05;102487.22;2572642;55;20124;-69
2021/09/20 09:08:07;;;;;;;2.03;1.17;;;;;;;6.63;88.75;102480.00;2563263;55;20110;-68
2021/09/20 09:10:36;;;;;;;1.98;1.10;;;;;;;6.70;86.88;102481.53;2572733;55;20128;-69
2021/09/20 09:13:05;;;;;;;1.90;1.00;;;;;;;6.70;89.21;102484.16;2572700;55;20133;-69
2021/09/20 09:15:33;;;;;;;2.78;0.70;;;;;;;6.81;85.36;102457.31;2572774;55;20682;-69
2021/09/20 09:18:02;;;;;;;4.35;2.33;;;;;;;6.68;89.02;102470.97;2572858;55;20109;-69
2021/09/20 09:20:32;;;;;;;7.65;4.40;;;;;;;6.70;90.12;102478.03;2572767;55;20620;-69
2021/09/20 09:23:01;;;;;;;3.42;1.40;;;;;;;6.70;87.19;102478.88;2572529;55;20133;-69
2021/09/20 09:25:36;;;;;;;3.92;2.22;;;;;;;6.69;88.23;102490.41;2567832;55;20114;-69
2021/09/20 09:28:15;;;;;;;11.73;5.07;;;;;;;6.65;88.67;102481.66;2572681;55;20151;-69
2021/09/20 09:30:45;;;;;;;7.40;3.60;;;;;;;6.64;89.10;102479.94;2572748;55;20128;-68
2021/09/20 09:33:16;;;;;;;7.37;4.25;;;;;;;6.64;87.94;102471.97;2572601;55;20532;-69
2021/09/20 09:35:45;;;;;;;2.17;1.50;;;;;;;6.70;87.21;102472.72;2572563;55;20132;-69
2021/09/20 09:38:12;;;;;;;4.95;2.37;;;;;;;6.70;84.99;102478.03;2573608;55;20528;-69
2021/09/20 09:40:48;;;;;;;6.07;1.35;;;;;;;6.65;85.50;102467.53;2573646;55;20109;-70
2021/09/20 09:43:22;;;;;;;2.12;0.90;;;;;;;6.74;84.66;102477.00;2573467;55;20110;-69
2021/09/20 09:45:50;;;;;;;5.18;4.07;;;;;;;6.70;86.18;102478.88;2573508;55;20543;-69
2021/09/20 09:48:19;;;;;;;2.45;1.75;;;;;;;6.78;85.02;102487.47;2573461;55;20616;-68
2021/09/20 09:50:48;;;;;;;8.30;1.37;;;;;;;6.98;83.87;102477.16;2573384;55;20113;-69
2021/09/20 09:53:28;;;;;;;5.78;2.53;;;;;;;7.20;82.48;102478.19;2568211;55;20135;-69
2021/09/20 09:55:58;;;;;;;2.70;0.80;;;;;;;7.17;84.87;102474.78;2573395;55;20114;-69
2021/09/20 09:58:25;;;;;;;2.17;1.87;;;;;;;7.32;84.64;102479.59;2573426;55;20121;-69
2021/09/20 10:01:16;;;;;;;4.65;1.30;;;;;;;7.28;81.93;102469.97;2573415;55;20614;-69
2021/09/20 10:04:13;;;;;;;6.10;2.35;;;;;;;7.13;81.75;102467.84;2573343;55;20139;-69
2021/09/20 10:06:51;;;;;;;3.62;1.33;;;;;;;7.09;84.52;102475.88;2573385;55;20123;-69
2021/09/20 10:09:21;;;;;;;2.67;1.20;;;;;;;7.07;81.64;102469.75;2573410;55;20186;-69
2021/09/20 10:11:51;;;;;;;2.30;0.73;;;;;;;7.10;82.57;102474.09;2573300;55;20114;-69
2021/09/20 10:14:20;;;;;;;2.42;0.80;;;;;;;6.97;82.61;102460.34;2573393;55;20191;-69
2021/09/20 10:16:50;;;;;;;3.08;1.58;;;;;;;6.90;82.95;102469.41;2573355;55;20129;-70
2021/09/20 10:19:17;;;;;;;4.70;2.05;;;;;;;7.05;85.10;102466.28;2573326;55;20704;-69
2021/09/20 10:21:45;;;;;;;7.28;2.45;;;;;;;7.09;81.73;102469.72;2573311;55;20499;-69
2021/09/20 10:24:13;;;;;;;6.18;1.75;;;;;;;7.00;83.24;102467.34;2573450;55;20636;-69
2021/09/20 10:26:40;;;;;;;2.15;1.30;;;;;;;7.02;83.47;102473.47;2568285;55;20117;-68
2021/09/20 10:29:13;;;;;;;2.60;1.62;;;;;;;7.11;85.68;102462.56;2573363;55;20114;-69
2021/09/20 10:31:42;;;;;;;1.33;0.95;;;;;;;7.10;82.28;102466.16;2573386;55;20114;-70
2021/09/20 10:34:29;;;;;;;2.70;1.40;;;;;;;6.97;83.11;102460.34;2573269;55;20117;-69
2021/09/20 10:37:03;;;;;;;3.40;1.40;;;;;;;6.93;86.68;102464.88;2573532;55;20135;-68
2021/09/20 10:39:50;;;;;;;2.87;1.17;;;;;;;6.99;86.17;102457.66;2573244;55;20116;-68
2021/09/20 10:43:03;;;;;;;1.52;1.20;;;;;;;7.20;83.99;102461.38;2573375;55;20126;-69
2021/09/20 10:45:43;;;;;;;4.50;2.30;;;;;;;7.29;84.91;102431.03;2573101;55;20139;-68
2021/09/20 10:48:49;;;;;;;1.92;1.00;;;;;;;7.34;84.42;102448.53;2573158;55;20121;-68
2021/09/20 10:51:24;;;;;;;2.75;1.02;;;;;;;7.31;81.74;102442.47;2564430;55;20106;-70
2021/09/20 10:54:13;;;;;;;3.45;1.23;;;;;;;7.27;82.04;102441.69;2573226;55;20127;-69
2021/09/20 10:56:42;;;;;;;1.37;0.95;;;;;;;7.23;83.38;102450.69;2573101;55;20541;-69
2021/09/20 10:59:14;;;;;;;1.40;0.90;;;;;;;7.22;83.03;102448.94;2573203;55;20117;-69
2021/09/20 11:01:54;;;;;;;1.37;1.12;;;;;;;7.16;80.29;102454.44;2573145;55;20110;-69
2021/09/20 11:04:26;;;;;;;1.65;1.10;;;;;;;7.04;81.37;102435.38;2573270;55;20121;-69
2021/09/20 11:07:06;;;;;;;2.30;1.40;;;;;;;7.20;82.51;102442.81;2573361;55;20622;-69
2021/09/20 11:09:41;;;;;;;1.55;0.93;;;;;;;7.21;80.21;102425.94;2573337;55;20570;-69
2021/09/20 11:12:12;;;;;;;3.80;1.37;;;;;;;7.40;78.95;102428.88;2573124;55;20656;-69
2021/09/20 11:14:48;;;;;;;1.92;0.88;;;;;;;7.40;79.90;102433.28;2573064;55;20660;-69
2021/09/20 11:17:38;;;;;;;3.17;1.20;;;;;;;7.68;79.45;102427.03;2573200;55;20147;-69
2021/09/20 11:20:23;;;;;;;2.95;1.30;;;;;;;7.78;78.65;102436.41;2573244;55;20185;-68
2021/09/20 11:22:50;;;;;;;2.25;1.00;;;;;;;7.75;78.41;102437.38;2573125;55;20118;-69
2021/09/20 11:25:18;;;;;;;1.40;0.70;;;;;;;7.74;78.78;102424.16;2573035;55;20414;-70
2021/09/20 11:27:47;;;;;;;1.65;1.10;;;;;;;7.57;77.79;102438.91;2573088;55;20127;-70
2021/09/20 11:30:16;;;;;;;1.87;0.60;;;;;;;7.36;78.89;102428.09;2573156;55;20177;-69
2021/09/20 11:32:48;;;;;;;0.80;0.70;;;;;;;7.42;78.75;102439.44;2572865;55;20122;-68